• Join FlightAware (Why Join?)
  • Login
  • US Flag 
08:16PM EST


 

Airport Tracker/Info


-or-


 

Live Flight TrackerFlight Track Log ✈ SKW6290 ✈ 16-Sep-2013 ✈ KSFO - KPSP

Flight Track Log - Related Links

Times and Time Zones

All times are in EDT time to prevent confusion due to time zone crossing. See the SKW6290 flight status page for this flight to view local times or setup timezone preferences in your user account.

Time Position Orientation Groundspeed Altitude Reporting Facility
EDT Latitude Longitude Course Direction KTS MPH feet Rate Location/Type
06:41PM 37.6333 -122.3667 122° Southeast 165 190 1,100  Level Northern Cal TRACON
06:42PM 37.6833 -122.3833 345° North 208 239 3,300 2,040 Climbing Northern Cal TRACON
06:43PM 37.6706 -122.4214 247° West 216 249 4,700 2,160 Climbing Oakland Center
06:44PM 37.3044 -121.8475 133° Southeast  Level Estimated
06:44PM 37.5917 -122.4364 189° South 250 288 7,100  Level Oakland Center
06:45PM 37.2254 -121.7162 122° Southeast  Level Estimated
06:45PM 37.5158 -122.4053 162° South 286 329 9,500  Level Oakland Center
06:46PM 37.1462 -121.5853 122° Southeast  Level Estimated
06:46PM 37.4486 -122.3494 147° Southeast 290 334 11,400  Level Oakland Center
06:47PM 37.3953 -122.2575 126° Southeast 325 374 12,800 1,560 Climbing Oakland Center
06:48PM 37.3378 -122.1639 128° Southeast 339 390 14,600 1,920 Climbing Oakland Center
06:49PM 37.2811 -122.0722 128° Southeast 335 386 16,800 1,800 Climbing Oakland Center
06:50PM 37.2242 -121.9822 128° Southeast 332 382 18,400 1,500 Climbing Oakland Center
06:51PM 37.1642 -121.8858 128° Southeast 348 400 19,900 1,380 Climbing Oakland Center
06:52PM 37.1025 -121.7872 128° Southeast 356 410 21,300 1,260 Climbing Oakland Center
06:53PM 37.0408 -121.6917 129° Southeast 358 412 22,500 1,200 Climbing Oakland Center
06:54PM 36.9647 -121.5733 129° Southeast 365 420 23,800 1,140 Climbing Oakland Center
06:55PM 36.9000 -121.4700 128° Southeast 375 432 24,900 960 Climbing Oakland Center
06:56PM 36.8356 -121.3639 127° Southeast 382 440 25,800 780 Climbing Oakland Center
06:57PM 36.7681 -121.2617 129° Southeast 388 447 26,600 720 Climbing Oakland Center
06:58PM 36.6986 -121.1536 129° Southeast 396 456 27,300 720 Climbing Oakland Center
06:59PM 36.6292 -121.0419 128° Southeast 406 467 28,100 720 Climbing Oakland Center
07:00PM 36.5564 -120.9325 130° Southeast 409 471 28,800 420 Climbing Oakland Center
07:01PM 36.4828 -120.8164 128° Southeast 423 487 29,000 60 Climbing Oakland Center
07:02PM 36.4083 -120.7006 129° Southeast 428 493 29,000  Level Oakland Center
07:03PM 36.3172 -120.5617 129° Southeast 431 496 29,000  Level Oakland Center
07:04PM 36.2428 -120.4461 129° Southeast 430 495 29,000  Level Oakland Center
07:05PM 36.1667 -120.3297 129° Southeast 431 496 29,000  Level Oakland Center
07:06PM 36.0911 -120.2144 129° Southeast 431 496 29,000  Level Oakland Center
07:07PM 36.0156 -120.0986 129° Southeast 431 496 29,000  Level Oakland Center
07:08PM 35.9394 -119.9839 129° Southeast 430 495 29,000  Level Oakland Center
07:09PM 35.8469 -119.8444 129° Southeast 431 496 29,000  Level Los Angeles Center
07:10PM 35.7706 -119.7306 130° Southeast 429 494 29,000  Level Los Angeles Center
07:11PM 35.6950 -119.6158 129° Southeast 429 494 29,000  Level Los Angeles Center
07:12PM 35.6328 -119.5236 130° Southeast 433 498 29,000  Level Oakland Center
07:13PM 35.5564 -119.4097 129° Southeast 432 497 29,000  Level Oakland Center
07:14PM 35.4797 -119.2950 129° Southeast 433 498 29,000  Level Oakland Center
07:15PM 35.3872 -119.1586 130° Southeast 434 499 29,000  Level Oakland Center
07:16PM 35.3103 -119.0461 130° Southeast 431 496 29,000  Level Oakland Center
07:17PM 35.2331 -118.9331 130° Southeast 432 497 29,000  Level Oakland Center
07:18PM 35.1569 -118.8203 130° Southeast 431 496 29,000  Level Oakland Center
07:19PM 35.0806 -118.7069 129° Southeast 432 497 29,000 -660 Level Oakland Center
07:20PM 35.0025 -118.5933 130° Southeast 434 499 27,700 -1,260 Descending Oakland Center
07:22PM 34.9119 -118.4675 131° Southeast 422 486 26,200 -1,200 Descending Los Angeles Center
07:23PM 34.8264 -118.3456 130° Southeast 401 461 25,000 -1,080 Descending Los Angeles Center
07:24PM 34.7567 -118.2447 130° Southeast 394 453 24,000 -1,020 Descending Los Angeles Center
07:25PM 34.6875 -118.1469 131° Southeast 387 445 23,000 -1,020 Descending Los Angeles Center
07:26PM 34.6225 -118.0472 128° Southeast 382 440 22,000 -1,020 Descending Los Angeles Center
07:27PM 34.5731 -117.9372 119° Southeast 374 430 21,000 -1,080 Descending Los Angeles Center
07:28PM 34.5142 -117.8089 119° Southeast 366 421 19,800 -1,080 Descending Los Angeles Center
07:29PM 34.4650 -117.7047 120° Southeast 360 414 18,800 -1,020 Descending Los Angeles Center
07:30PM 34.4189 -117.6031 119° Southeast 349 402 17,700 -900 Descending Los Angeles Center
07:31PM 34.3661 -117.4886 119° Southeast 340 391 17,000 -360 Descending Los Angeles Center
07:32PM 34.3217 -117.3911 119° Southeast 331 381 17,000  Level Los Angeles Center
07:33PM 34.2767 -117.2939 119° Southeast 331 381 17,000  Level Los Angeles Center
07:34PM 34.2300 -117.1947 120° Southeast 335 386 17,000  Level Los Angeles Center
07:35PM 34.1806 -117.0908 120° Southeast 343 395 17,000  Level Los Angeles Center
07:36PM 34.1331 -116.9883 119° Southeast 349 402 17,000 -180 Level Los Angeles Center
07:37PM 34.0892 -116.8906 118° Southeast 338 389 16,700 -1,260 Descending Los Angeles Center
07:38PM 34.0344 -116.7742 120° Southeast 334 384 14,400 -2,040 Descending Los Angeles Center
07:39PM 33.9967 -116.6808 116° Southeast 315 362 12,600 -1,740 Descending Los Angeles Center
07:40PM 33.9697 -116.5931 110° East 289 333 10,900 -2,040 Descending Los Angeles Center
07:41PM 33.9453 -116.5242 113° Southeast 233 268 8,400 -1,560 Descending Los Angeles Center
07:42PM 33.9122 -116.4606 122° Southeast 230 265 7,700 -2,100 Descending Los Angeles Center
07:45PM 33.8000 -116.4333 169° South 170 196 1,600 -2,160 Descending Southern California TRACON
07:46PM 33.8000 -116.4833 270° West 170 196 900 -720 Descending Southern California TRACON